Time;durP1;ratioP1;P1;durP2;ratioP2;P2;SDS_P1;SDS_P2;PMS_P1;PMS_P2;Temp;Humidity;BMP_temperature;BMP_pressure;BME280_temperature;BME280_humidity;BME280_pressure;Samples;Min_cycle;Max_cycle;Signal;HPM_P1;HPM_P2
2023/03/02 00:02:58;;;;;;;12.40;9.43;;;6.00;31.30;;;;;;10364975;28;20519;-76
2023/03/02 00:08:04;;;;;;;10.47;9.40;;;6.00;31.40;;;;;;10359166;28;20337;-74
2023/03/02 00:13:07;;;;;;;12.43;9.90;;;6.00;31.50;;;;;;10365586;28;20240;-76
2023/03/02 00:18:10;;;;;;;10.70;9.60;;;6.00;31.60;;;;;;10365733;28;20602;-72
2023/03/02 00:23:15;;;;;;;10.10;9.00;;;6.00;31.60;;;;;;10363759;28;20257;-72
2023/03/02 00:28:20;;;;;;;10.47;9.33;;;5.90;31.50;;;;;;10365384;28;20265;-72
2023/03/02 00:33:23;;;;;;;10.40;9.30;;;5.90;31.50;;;;;;10362057;28;20226;-72
2023/03/02 00:38:28;;;;;;;11.67;10.47;;;5.80;31.60;;;;;;10365658;28;20226;-72
2023/03/02 00:43:31;;;;;;;11.90;9.63;;;5.80;31.90;;;;;;10365385;28;20237;-76
2023/03/02 00:48:34;;;;;;;10.83;9.73;;;5.80;31.70;;;;;;10367944;28;20721;-76
2023/03/02 00:53:39;;;;;;;11.50;9.80;;;5.80;31.70;;;;;;10361634;28;20220;-76
2023/03/02 00:58:42;;;;;;;10.30;9.30;;;5.80;32.10;;;;;;10364722;28;20234;-76
2023/03/02 01:03:45;;;;;;;11.33;9.30;;;5.80;31.90;;;;;;10362066;28;20230;-76
2023/03/02 01:08:50;;;;;;;11.70;10.43;;;5.80;31.90;;;;;;10364085;28;20647;-74
2023/03/02 01:13:53;;;;;;;11.27;9.47;;;5.70;32.10;;;;;;10362765;28;20231;-74
2023/03/02 01:18:56;;;;;;;13.10;10.67;;;5.70;31.90;;;;;;10360391;28;20241;-74
2023/03/02 01:24:00;;;;;;;12.17;10.83;;;5.70;32.00;;;;;;10364355;28;20233;-72
2023/03/02 01:29:04;;;;;;;11.27;9.53;;;5.70;32.20;;;;;;10356237;28;20663;-73
2023/03/02 01:34:07;;;;;;;12.47;10.40;;;5.70;32.10;;;;;;10363015;28;20284;-74
2023/03/02 01:39:14;;;;;;;12.27;9.93;;;5.60;32.10;;;;;;10361872;28;20241;-74
2023/03/02 01:44:35;;;;;;;11.77;10.47;;;5.60;32.20;;;;;;10363984;28;20318;-74
2023/03/02 01:49:39;;;;;;;9.83;8.47;;;5.60;32.90;;;;;;10361771;28;20229;-74
2023/03/02 01:54:48;;;;;;;10.87;9.73;;;5.50;32.10;;;;;;10363503;28;20707;-74
2023/03/02 01:59:56;;;;;;;12.97;10.23;;;5.50;32.40;;;;;;10358494;28;20234;-74
2023/03/02 02:04:59;;;;;;;12.33;10.23;;;5.50;32.50;;;;;;10361248;28;20734;-74
2023/03/02 02:10:05;;;;;;;13.53;10.60;;;5.50;32.20;;;;;;10358339;28;20226;-74
2023/03/02 02:15:09;;;;;;;11.30;10.10;;;5.50;32.40;;;;;;10359196;28;20219;-74
2023/03/02 02:20:22;;;;;;;11.63;10.43;;;5.40;32.20;;;;;;10362849;28;20226;-72
2023/03/02 02:25:40;;;;;;;13.17;10.30;;;5.40;32.50;;;;;;10356706;28;20258;-72
2023/03/02 02:30:46;;;;;;;13.67;10.63;;;5.40;32.80;;;;;;10359498;28;21246;-72
2023/03/02 02:35:51;;;;;;;11.70;10.10;;;5.30;32.40;;;;;;10354488;28;20704;-72
2023/03/02 02:40:57;;;;;;;9.67;8.37;;;5.30;32.30;;;;;;10355614;28;20864;-72
2023/03/02 02:46:03;;;;;;;11.53;9.57;;;5.30;32.20;;;;;;10360388;28;20218;-72
2023/03/02 02:51:09;;;;;;;11.80;10.17;;;5.20;32.40;;;;;;10361000;28;20222;-73
2023/03/02 02:56:13;;;;;;;12.00;10.67;;;5.20;32.30;;;;;;10351987;28;20612;-72
2023/03/02 03:01:24;;;;;;;11.67;9.93;;;5.10;32.00;;;;;;10352028;28;20729;-72
2023/03/02 03:06:37;;;;;;;11.30;9.60;;;5.10;32.20;;;;;;10358260;28;20233;-72
2023/03/02 03:11:43;;;;;;;12.70;10.40;;;5.00;31.90;;;;;;10363405;28;20253;-72
2023/03/02 03:16:50;;;;;;;13.50;10.47;;;5.00;32.20;;;;;;10361401;28;20231;-72
2023/03/02 03:21:55;;;;;;;13.07;9.63;;;4.90;32.50;;;;;;10359155;28;20226;-76
2023/03/02 03:27:00;;;;;;;12.13;10.43;;;4.90;32.60;;;;;;10354769;28;20234;-77
2023/03/02 03:32:06;;;;;;;11.90;10.20;;;4.80;32.40;;;;;;10329199;28;20226;-76
2023/03/02 03:37:09;;;;;;;11.47;9.70;;;4.80;32.50;;;;;;10339326;28;20234;-76
2023/03/02 03:42:12;;;;;;;13.73;10.27;;;4.80;32.40;;;;;;10346936;28;20322;-76
2023/03/02 03:47:17;;;;;;;12.63;9.87;;;4.70;32.40;;;;;;10325774;28;20232;-72
2023/03/02 03:52:29;;;;;;;10.57;9.47;;;4.70;32.60;;;;;;10337227;28;20576;-72
2023/03/02 03:57:32;;;;;;;11.17;9.97;;;4.70;32.40;;;;;;10337656;28;20234;-73
2023/03/02 04:02:37;;;;;;;11.73;9.80;;;4.70;32.50;;;;;;10335309;28;20234;-76
2023/03/02 04:07:41;;;;;;;11.37;9.07;;;4.60;32.80;;;;;;10344518;28;20230;-72
2023/03/02 04:12:44;;;;;;;11.13;9.93;;;4.60;32.80;;;;;;10356108;28;20229;-72
2023/03/02 04:17:49;;;;;;;12.13;9.47;;;4.60;32.80;;;;;;10333674;28;20305;-74
2023/03/02 04:22:54;;;;;;;11.70;9.73;;;4.60;33.10;;;;;;10347462;28;20237;-73
2023/03/02 04:27:58;;;;;;;12.27;9.73;;;4.60;33.10;;;;;;10337014;28;20231;-73
2023/03/02 04:33:02;;;;;;;10.63;9.53;;;4.60;32.90;;;;;;10326969;28;20227;-72
2023/03/02 04:38:06;;;;;;;12.07;9.20;;;4.50;33.10;;;;;;10348888;28;20227;-72
2023/03/02 04:43:09;;;;;;;11.77;10.13;;;4.50;32.90;;;;;;10360943;28;20732;-72
2023/03/02 04:48:14;;;;;;;12.30;9.57;;;4.50;33.00;;;;;;10364730;28;20265;-76
2023/03/02 04:53:17;;;;;;;11.23;9.67;;;4.50;33.30;;;;;;10362474;28;20706;-72
2023/03/02 04:58:20;;;;;;;11.17;8.30;;;4.50;33.10;;;;;;10365013;28;20230;-72
2023/03/02 05:03:24;;;;;;;9.30;8.30;;;4.50;32.90;;;;;;10363731;28;20230;-72
2023/03/02 05:08:28;;;;;;;10.83;9.67;;;4.40;33.10;;;;;;10365708;28;20231;-71
2023/03/02 05:13:31;;;;;;;10.87;9.67;;;4.40;32.90;;;;;;10363707;28;20757;-72
2023/03/02 05:18:35;;;;;;;11.97;9.33;;;4.30;32.90;;;;;;10364261;28;20250;-71
2023/03/02 05:23:42;;;;;;;11.47;9.37;;;4.40;33.10;;;;;;10363366;28;20227;-72
2023/03/02 05:28:45;;;;;;;13.73;10.27;;;4.30;33.00;;;;;;10361228;28;20226;-75
2023/03/02 05:33:50;;;;;;;9.23;8.30;;;4.30;33.00;;;;;;10363135;28;20225;-73
2023/03/02 05:38:53;;;;;;;11.17;9.57;;;4.30;33.20;;;;;;10363089;28;20230;-74
2023/03/02 05:43:56;;;;;;;14.83;10.00;;;4.20;33.00;;;;;;10362808;28;20645;-73
2023/03/02 05:49:01;;;;;;;10.73;8.70;;;4.20;33.00;;;;;;10360789;28;20226;-71
2023/03/02 05:54:04;;;;;;;12.83;9.60;;;4.20;33.10;;;;;;10362758;28;20222;-72
2023/03/02 05:59:07;;;;;;;9.40;8.33;;;4.10;33.10;;;;;;10363481;28;20237;-72
2023/03/02 06:04:11;;;;;;;13.00;9.97;;;4.10;33.10;;;;;;10363617;28;20234;-72
2023/03/02 06:09:15;;;;;;;12.50;9.47;;;4.10;33.30;;;;;;10361922;28;20654;-72
2023/03/02 06:14:18;;;;;;;11.07;9.77;;;4.10;33.20;;;;;;10359901;28;20227;-71
2023/03/02 06:19:22;;;;;;;11.33;9.17;;;4.00;33.10;;;;;;10360403;28;20245;-72
2023/03/02 06:24:28;;;;;;;12.30;7.47;;;4.00;33.40;;;;;;10358547;28;20226;-72
2023/03/02 06:29:31;;;;;;;11.53;9.47;;;4.00;34.40;;;;;;10358840;28;20721;-71
2023/03/02 06:34:35;;;;;;;13.10;10.10;;;4.10;35.40;;;;;;10358607;28;20241;-71
2023/03/02 06:39:39;;;;;;;13.20;9.73;;;4.30;35.70;;;;;;10359449;28;20234;-71
2023/03/02 06:44:42;;;;;;;10.67;9.47;;;4.30;34.30;;;;;;10360176;28;20234;-71
2023/03/02 06:49:46;;;;;;;11.70;9.97;;;4.40;34.10;;;;;;10359326;28;20237;-71
2023/03/02 06:54:50;;;;;;;14.23;10.80;;;4.40;34.40;;;;;;10345479;28;20222;-71
2023/03/02 06:59:53;;;;;;;12.67;11.10;;;4.40;34.10;;;;;;10336273;28;20315;-71
2023/03/02 07:04:57;;;;;;;12.87;10.30;;;4.40;34.30;;;;;;10317003;28;20231;-71
2023/03/02 07:10:00;;;;;;;11.43;10.17;;;4.50;34.70;;;;;;10339503;28;20227;-71
2023/03/02 07:15:09;;;;;;;13.97;10.77;;;4.40;34.50;;;;;;10315949;28;20222;-71
2023/03/02 07:20:17;;;;;;;16.60;11.37;;;4.40;34.70;;;;;;10317759;28;20604;-71
2023/03/02 07:25:20;;;;;;;14.27;11.00;;;4.50;35.40;;;;;;10316856;28;20227;-71
2023/03/02 07:30:24;;;;;;;13.00;10.63;;;4.60;35.10;;;;;;10326404;28;20237;-75
2023/03/02 07:35:29;;;;;;;12.27;10.87;;;4.70;35.20;;;;;;10349805;28;20607;-72
2023/03/02 07:40:33;;;;;;;12.77;11.47;;;4.70;35.80;;;;;;10321637;28;20226;-70
2023/03/02 07:45:37;;;;;;;13.40;10.40;;;4.80;35.60;;;;;;10327024;28;20222;-75
2023/03/02 07:50:42;;;;;;;13.37;11.40;;;4.90;35.90;;;;;;10345763;28;20258;-74
2023/03/02 07:55:45;;;;;;;12.47;10.70;;;5.00;36.30;;;;;;10353678;28;20230;-73
2023/03/02 08:00:49;;;;;;;12.53;11.23;;;5.10;36.00;;;;;;10349648;28;20218;-73
2023/03/02 08:05:53;;;;;;;12.17;10.87;;;5.30;36.30;;;;;;10353507;28;20323;-70
2023/03/02 08:11:03;;;;;;;13.03;11.10;;;5.40;36.80;;;;;;10360491;28;20234;-70
2023/03/02 08:16:09;;;;;;;13.23;10.83;;;5.60;36.70;;;;;;10365311;28;20312;-70
2023/03/02 08:21:16;;;;;;;13.37;10.83;;;5.80;37.00;;;;;;10366775;28;20252;-70
2023/03/02 08:26:21;;;;;;;11.83;10.60;;;6.00;37.20;;;;;;10350214;28;20223;-70
2023/03/02 08:31:25;;;;;;;13.73;10.93;;;6.30;36.90;;;;;;10330492;28;20318;-70
2023/03/02 08:36:30;;;;;;;12.47;11.03;;;6.50;36.90;;;;;;10325274;28;20226;-70
2023/03/02 08:41:34;;;;;;;15.40;11.10;;;6.70;37.10;;;;;;10325335;28;20243;-69
2023/03/02 08:46:37;;;;;;;12.67;11.23;;;7.00;36.90;;;;;;10323761;28;20231;-69
2023/03/02 08:51:42;;;;;;;12.83;10.80;;;7.20;36.90;;;;;;10350435;28;20233;-70
2023/03/02 08:56:46;;;;;;;13.07;10.57;;;7.50;37.10;;;;;;10354322;28;20257;-69
2023/03/02 09:01:49;;;;;;;10.93;9.40;;;7.80;37.00;;;;;;10357416;28;20225;-69
2023/03/02 09:06:53;;;;;;;8.87;7.97;;;8.00;36.90;;;;;;10348757;28;20241;-69
2023/03/02 09:11:56;;;;;;;11.03;8.10;;;8.30;36.90;;;;;;10332492;28;20242;-74
2023/03/02 09:17:00;;;;;;;10.57;7.90;;;8.60;36.70;;;;;;10342124;28;20230;-74
2023/03/02 09:22:04;;;;;;;9.50;7.77;;;8.90;36.50;;;;;;10346913;28;20693;-73
2023/03/02 09:27:07;;;;;;;11.10;8.10;;;9.20;36.30;;;;;;10331977;28;20238;-73
2023/03/02 09:32:12;;;;;;;9.90;7.40;;;9.50;36.30;;;;;;10341661;28;20233;-73
2023/03/02 09:37:17;;;;;;;10.30;7.90;;;9.70;36.10;;;;;;10340974;28;20250;-73
2023/03/02 09:42:48;;;;;;;9.97;7.53;;;9.90;35.90;;;;;;10362821;28;20218;-73
2023/03/02 09:48:04;;;;;;;9.20;6.70;;;10.20;35.10;;;;;;10350841;28;20629;-74
2023/03/02 09:53:34;;;;;;;9.37;6.53;;;10.50;34.90;;;;;;10363152;28;20607;-74
2023/03/02 09:58:39;;;;;;;6.27;5.57;;;10.70;34.50;;;;;;10362578;28;20236;-74
2023/03/02 10:03:49;;;;;;;5.93;5.13;;;11.00;34.20;;;;;;10332851;28;20527;-74
2023/03/02 10:08:55;;;;;;;9.23;5.83;;;11.30;33.80;;;;;;10324449;28;20610;-74
2023/03/02 10:14:04;;;;;;;7.70;5.43;;;11.50;33.40;;;;;;10348031;28;20226;-76
2023/03/02 10:19:13;;;;;;;8.37;5.60;;;11.70;34.20;;;;;;10356196;28;20222;-76
2023/03/02 10:24:26;;;;;;;8.73;5.80;;;11.90;33.10;;;;;;10348637;28;20233;-76
2023/03/02 10:29:44;;;;;;;9.17;5.63;;;12.20;32.90;;;;;;10338206;28;20234;-76
2023/03/02 10:34:48;;;;;;;7.77;5.50;;;12.30;32.60;;;;;;10327333;28;20226;-76
2023/03/02 10:39:53;;;;;;;8.60;5.73;;;12.60;32.70;;;;;;10316658;28;20238;-75
2023/03/02 10:45:02;;;;;;;9.33;5.90;;;12.70;32.20;;;;;;10329627;28;20586;-71
2023/03/02 10:50:22;;;;;;;7.70;5.83;;;12.90;31.80;;;;;;10311894;28;20234;-72
2023/03/02 10:55:27;;;;;;;7.10;5.23;;;13.10;31.20;;;;;;10309071;28;20234;-73
2023/03/02 11:00:31;;;;;;;7.03;5.43;;;13.20;32.00;;;;;;10313508;28;20278;-73
2023/03/02 11:05:36;;;;;;;8.30;5.43;;;13.40;31.90;;;;;;10310598;28;20235;-71
2023/03/02 11:10:50;;;;;;;6.17;5.17;;;13.50;31.70;;;;;;10308007;28;20230;-73
2023/03/02 11:15:58;;;;;;;9.37;5.43;;;13.70;31.40;;;;;;10312150;28;20723;-73
2023/03/02 11:21:04;;;;;;;7.73;5.00;;;13.80;31.10;;;;;;10307359;28;20226;-69
2023/03/02 11:26:18;;;;;;;6.70;5.10;;;13.90;31.10;;;;;;10307390;28;20235;-70
2023/03/02 11:31:32;;;;;;;8.07;5.03;;;14.00;30.10;;;;;;10306839;28;20231;-69
2023/03/02 11:36:44;;;;;;;6.67;4.63;;;14.20;30.50;;;;;;10309178;28;20231;-69
2023/03/02 11:41:49;;;;;;;9.17;4.67;;;14.30;30.80;;;;;;10307496;28;20230;-69
2023/03/02 11:46:59;;;;;;;5.73;4.47;;;14.40;30.90;;;;;;10306668;28;20237;-69
2023/03/02 11:52:02;;;;;;;7.93;4.93;;;14.40;29.80;;;;;;10307474;28;20242;-69
2023/03/02 11:57:18;;;;;;;7.30;4.90;;;14.60;30.50;;;;;;10305211;28;20239;-69
2023/03/02 12:02:22;;;;;;;6.67;5.20;;;14.60;30.00;;;;;;10305813;28;20231;-69
2023/03/02 12:07:27;;;;;;;6.07;4.83;;;14.70;30.70;;;;;;10304427;28;20231;-69
2023/03/02 12:12:36;;;;;;;6.20;4.27;;;14.80;30.30;;;;;;10307389;28;20247;-69
2023/03/02 12:17:39;;;;;;;7.50;5.27;;;14.90;29.90;;;;;;10298546;28;20230;-68
2023/03/02 12:22:42;;;;;;;6.30;5.07;;;14.90;30.20;;;;;;10314341;28;20457;-69
2023/03/02 12:27:48;;;;;;;5.87;4.77;;;14.90;29.90;;;;;;10316833;28;20699;-69
2023/03/02 12:33:04;;;;;;;7.40;4.43;;;14.90;29.60;;;;;;10316909;28;20235;-69
2023/03/02 12:38:23;;;;;;;11.33;4.97;;;14.90;29.20;;;;;;10316610;28;20597;-69
2023/03/02 12:43:31;;;;;;;7.07;4.70;;;14.90;29.30;;;;;;10318257;28;20571;-69
2023/03/02 12:48:41;;;;;;;4.23;3.80;;;14.90;29.70;;;;;;10320087;28;20239;-69
2023/03/02 12:53:45;;;;;;;5.37;4.30;;;14.90;29.30;;;;;;10316988;28;20282;-69
2023/03/02 12:58:51;;;;;;;4.80;3.90;;;14.90;29.70;;;;;;10320139;28;20578;-69
2023/03/02 13:03:56;;;;;;;4.80;4.00;;;14.90;29.40;;;;;;10323750;28;20227;-70
2023/03/02 13:08:59;;;;;;;4.70;3.77;;;15.00;29.80;;;;;;10321444;28;20254;-71
2023/03/02 13:14:19;;;;;;;6.13;3.80;;;15.00;29.80;;;;;;10320475;28;20273;-71
2023/03/02 13:19:23;;;;;;;6.63;4.03;;;15.00;28.90;;;;;;10323720;28;20325;-71
2023/03/02 13:24:30;;;;;;;6.10;4.37;;;15.10;29.70;;;;;;10320127;28;20226;-71
2023/03/02 13:29:35;;;;;;;5.80;4.20;;;15.20;29.50;;;;;;10320449;28;20236;-71
2023/03/02 13:34:38;;;;;;;5.17;4.03;;;15.20;29.70;;;;;;10319019;28;20238;-72
2023/03/02 13:39:41;;;;;;;7.07;3.93;;;15.30;29.80;;;;;;10318490;28;20238;-75
2023/03/02 13:44:46;;;;;;;5.23;4.10;;;15.40;29.70;;;;;;10321004;28;20225;-74
2023/03/02 13:49:50;;;;;;;6.40;4.30;;;15.40;29.30;;;;;;10322249;28;21130;-74
2023/03/02 13:54:53;;;;;;;6.77;4.10;;;15.40;29.30;;;;;;10316209;28;20237;-74
2023/03/02 13:59:58;;;;;;;6.30;4.47;;;15.50;29.30;;;;;;10317085;28;20712;-69
2023/03/02 14:05:01;;;;;;;6.07;4.33;;;15.50;28.90;;;;;;10317439;28;20350;-70
2023/03/02 14:10:05;;;;;;;7.97;4.20;;;15.50;29.30;;;;;;10319543;28;20316;-70
2023/03/02 14:15:15;;;;;;;5.60;4.60;;;15.60;29.30;;;;;;10319579;28;20716;-70
2023/03/02 14:20:20;;;;;;;5.33;4.00;;;15.60;28.50;;;;;;10314991;28;20285;-70
2023/03/02 14:25:23;;;;;;;6.33;4.63;;;15.70;29.10;;;;;;10318542;28;20702;-69
2023/03/02 14:30:28;;;;;;;5.13;4.60;;;15.80;28.90;;;;;;10318757;28;20245;-69
2023/03/02 14:35:31;;;;;;;6.43;4.37;;;15.80;28.60;;;;;;10316200;28;20226;-69
2023/03/02 14:40:35;;;;;;;6.73;4.33;;;15.80;28.70;;;;;;10316503;28;20610;-69
2023/03/02 14:45:40;;;;;;;8.70;3.90;;;15.80;28.70;;;;;;10318719;28;20231;-69
2023/03/02 14:50:46;;;;;;;7.73;4.60;;;15.80;28.40;;;;;;10318672;28;20231;-68
2023/03/02 14:55:49;;;;;;;5.80;4.20;;;15.80;28.20;;;;;;10314247;28;20218;-67
2023/03/02 15:00:53;;;;;;;5.30;4.27;;;15.80;28.30;;;;;;10319426;28;20222;-69
2023/03/02 15:05:57;;;;;;;7.13;4.37;;;15.80;28.10;;;;;;10316136;28;20231;-70
2023/03/02 15:11:03;;;;;;;5.70;4.30;;;15.80;28.50;;;;;;10317763;28;20230;-70
2023/03/02 15:16:10;;;;;;;5.90;4.23;;;15.70;28.40;;;;;;10317758;28;20239;-70
2023/03/02 15:21:17;;;;;;;5.67;3.93;;;15.70;28.00;;;;;;10307282;28;20492;-70
2023/03/02 15:26:21;;;;;;;4.60;4.20;;;15.70;28.00;;;;;;10309357;28;20288;-70
2023/03/02 15:31:26;;;;;;;6.90;4.20;;;15.70;28.40;;;;;;10305181;28;20733;-69
2023/03/02 15:36:30;;;;;;;9.47;4.60;;;15.70;28.30;;;;;;10306201;28;20238;-73
2023/03/02 15:41:33;;;;;;;8.23;4.10;;;15.70;28.40;;;;;;10308266;28;20384;-73
2023/03/02 15:46:38;;;;;;;6.80;3.73;;;15.60;28.30;;;;;;10307842;28;20258;-71
2023/03/02 15:51:41;;;;;;;6.37;4.13;;;15.60;28.50;;;;;;10314474;28;20914;-71
2023/03/02 15:56:48;;;;;;;7.10;4.30;;;15.60;28.50;;;;;;10316124;28;20236;-71
2023/03/02 16:01:53;;;;;;;5.33;4.27;;;15.60;28.60;;;;;;10318913;28;20248;-69
2023/03/02 16:06:56;;;;;;;8.13;4.10;;;15.70;28.40;;;;;;10313782;28;20317;-69
2023/03/02 16:12:00;;;;;;;5.57;4.27;;;15.70;28.50;;;;;;10318057;28;20237;-68
2023/03/02 16:17:04;;;;;;;6.43;4.10;;;15.60;28.40;;;;;;10315406;28;20603;-69
2023/03/02 16:22:08;;;;;;;6.90;3.93;;;15.60;28.30;;;;;;10314470;28;20223;-67
2023/03/02 16:27:11;;;;;;;5.33;4.27;;;15.60;28.90;;;;;;10317302;28;20281;-68
2023/03/02 16:32:15;;;;;;;8.10;4.47;;;15.60;28.90;;;;;;10319416;28;20235;-68
2023/03/02 16:37:18;;;;;;;6.20;4.70;;;15.70;28.80;;;;;;10324352;28;20289;-68
2023/03/02 16:42:22;;;;;;;6.33;5.37;;;15.60;28.40;;;;;;10328460;28;20318;-68
2023/03/02 16:47:26;;;;;;;9.53;5.10;;;15.50;28.10;;;;;;10326754;28;20231;-68
2023/03/02 16:52:29;;;;;;;27.87;7.07;;;15.40;28.00;;;;;;10323953;28;20277;-68
2023/03/02 16:57:32;;;;;;;9.87;7.37;;;15.30;28.20;;;;;;10325339;28;20321;-71
2023/03/02 17:02:37;;;;;;;11.00;8.30;;;15.10;28.00;;;;;;10324095;28;20231;-71
2023/03/02 17:07:40;;;;;;;11.50;9.13;;;15.00;27.90;;;;;;10321936;28;20278;-71
2023/03/02 17:12:44;;;;;;;12.13;9.67;;;14.80;28.00;;;;;;10322158;28;20510;-72
2023/03/02 17:17:48;;;;;;;13.57;10.40;;;14.70;28.00;;;;;;10320794;28;20810;-71
2023/03/02 17:22:52;;;;;;;12.07;9.10;;;14.60;27.90;;;;;;10322439;28;20608;-71
2023/03/02 17:27:55;;;;;;;10.83;8.70;;;14.40;28.00;;;;;;10324068;28;20231;-71
2023/03/02 17:33:00;;;;;;;11.63;9.37;;;14.30;28.20;;;;;;10322061;28;20253;-71
2023/03/02 17:38:05;;;;;;;18.70;10.60;;;14.20;28.20;;;;;;10355068;28;20773;-72
2023/03/02 17:43:08;;;;;;;12.07;10.70;;;14.10;28.30;;;;;;10348789;28;20741;-72
2023/03/02 17:48:13;;;;;;;10.03;9.03;;;14.00;28.20;;;;;;10345871;28;20253;-71
2023/03/02 17:53:16;;;;;;;12.73;10.30;;;13.90;28.20;;;;;;10340422;28;20238;-71
2023/03/02 17:58:19;;;;;;;14.80;11.77;;;13.80;28.20;;;;;;10362399;28;20237;-72
2023/03/02 18:03:24;;;;;;;13.23;11.00;;;13.70;28.20;;;;;;10342167;28;20223;-72
2023/03/02 18:08:27;;;;;;;12.40;10.13;;;13.50;28.20;;;;;;10352496;28;20234;-71
2023/03/02 18:13:30;;;;;;;12.13;9.37;;;13.40;28.20;;;;;;10345675;28;20723;-70
2023/03/02 18:18:35;;;;;;;11.00;9.73;;;13.30;28.30;;;;;;10337505;28;20226;-71
2023/03/02 18:23:40;;;;;;;14.03;9.00;;;13.10;28.30;;;;;;10317521;28;20223;-70
2023/03/02 18:28:43;;;;;;;10.50;8.70;;;13.00;28.40;;;;;;10347443;28;20230;-70
2023/03/02 18:33:48;;;;;;;11.60;10.07;;;12.90;28.40;;;;;;10328793;28;20750;-70
2023/03/02 18:38:53;;;;;;;15.73;10.27;;;12.80;28.50;;;;;;10320748;28;20231;-70
2023/03/02 18:43:56;;;;;;;13.00;9.40;;;12.70;28.50;;;;;;10322530;28;20649;-70
2023/03/02 18:49:03;;;;;;;11.37;9.63;;;12.60;28.50;;;;;;10335537;28;20237;-70
2023/03/02 18:54:06;;;;;;;11.67;8.33;;;12.50;28.50;;;;;;10359944;28;20227;-70
2023/03/02 18:59:09;;;;;;;9.57;8.57;;;12.30;28.50;;;;;;10353669;28;20230;-71
2023/03/02 19:04:14;;;;;;;13.73;10.30;;;12.30;28.70;;;;;;10318284;28;20293;-71
2023/03/02 19:09:18;;;;;;;11.43;8.23;;;12.20;28.50;;;;;;10330991;28;20238;-70
2023/03/02 19:14:21;;;;;;;15.97;10.50;;;12.10;28.60;;;;;;10350968;28;20234;-70
2023/03/02 19:19:25;;;;;;;13.47;11.40;;;12.00;28.50;;;;;;10360128;28;20660;-70
2023/03/02 19:24:28;;;;;;;18.30;12.63;;;11.80;28.50;;;;;;10357200;28;20226;-70
2023/03/02 19:29:31;;;;;;;18.93;14.33;;;11.50;28.50;;;;;;10339363;28;20235;-70
2023/03/02 19:34:36;;;;;;;21.30;18.70;;;11.30;29.00;;;;;;10318442;28;20475;-70
2023/03/02 19:39:40;;;;;;;26.10;21.13;;;11.20;29.10;;;;;;10329974;28;20226;-70
2023/03/02 19:44:43;;;;;;;24.67;19.83;;;11.00;29.00;;;;;;10336309;28;20733;-70
2023/03/02 19:49:48;;;;;;;23.57;17.80;;;10.90;28.90;;;;;;10334335;28;20226;-70
2023/03/02 19:54:51;;;;;;;26.20;19.47;;;10.70;28.80;;;;;;10358141;28;20226;-70
2023/03/02 19:59:54;;;;;;;19.83;16.23;;;10.50;29.20;;;;;;10349302;28;20646;-70
2023/03/02 20:04:59;;;;;;;20.50;14.93;;;10.30;28.80;;;;;;10335301;28;20239;-70
2023/03/02 20:10:02;;;;;;;18.27;15.03;;;10.20;29.20;;;;;;10333582;28;20238;-71
2023/03/02 20:15:06;;;;;;;18.17;15.33;;;10.10;29.10;;;;;;10335741;28;20238;-70
2023/03/02 20:20:14;;;;;;;20.17;17.97;;;10.00;29.30;;;;;;10340995;28;20234;-70
2023/03/02 20:25:18;;;;;;;21.70;18.33;;;9.90;30.30;;;;;;10359633;28;20249;-70
2023/03/02 20:30:26;;;;;;;27.87;22.97;;;9.80;30.00;;;;;;10365467;28;20241;-70
2023/03/02 20:35:33;;;;;;;28.00;23.50;;;9.70;30.20;;;;;;10364674;28;20612;-70
2023/03/02 20:40:37;;;;;;;26.30;21.37;;;9.60;30.50;;;;;;10363950;28;20617;-70
2023/03/02 20:45:40;;;;;;;26.37;20.37;;;9.50;30.30;;;;;;10355716;28;20715;-72
2023/03/02 20:50:45;;;;;;;24.23;17.87;;;9.40;30.40;;;;;;10355878;28;20285;-71
2023/03/02 20:55:48;;;;;;;25.33;19.43;;;9.40;30.50;;;;;;10356142;28;20623;-70
2023/03/02 21:00:52;;;;;;;37.00;27.23;;;9.30;30.30;;;;;;10355646;28;20219;-70
2023/03/02 21:05:57;;;;;;;30.93;21.97;;;9.30;30.40;;;;;;10354246;28;20606;-70
2023/03/02 21:11:00;;;;;;;35.20;26.93;;;9.20;30.40;;;;;;10356948;28;20292;-70
2023/03/02 21:16:04;;;;;;;33.53;24.80;;;9.10;30.40;;;;;;10356699;28;20706;-71
2023/03/02 21:21:09;;;;;;;29.10;22.40;;;9.10;30.50;;;;;;10357498;28;20230;-71
2023/03/02 21:26:13;;;;;;;26.13;21.23;;;9.00;30.60;;;;;;10362603;28;20245;-70
2023/03/02 21:31:18;;;;;;;28.37;24.10;;;8.90;30.40;;;;;;10364234;28;20745;-71
2023/03/02 21:36:24;;;;;;;26.53;21.57;;;8.80;30.40;;;;;;10361093;28;20235;-72
2023/03/02 21:41:27;;;;;;;26.20;20.97;;;8.70;30.80;;;;;;10358402;28;20237;-72
2023/03/02 21:46:31;;;;;;;22.37;19.13;;;8.70;30.70;;;;;;10361624;28;20238;-72
2023/03/02 21:51:35;;;;;;;23.87;21.00;;;8.60;30.60;;;;;;10354949;28;20708;-73
2023/03/02 21:56:39;;;;;;;29.73;23.23;;;8.60;30.90;;;;;;10349721;28;20226;-72
2023/03/02 22:01:42;;;;;;;23.93;20.27;;;8.50;30.70;;;;;;10340097;28;20226;-72
2023/03/02 22:06:47;;;;;;;26.87;22.57;;;8.40;30.80;;;;;;10350150;28;20664;-72
2023/03/02 22:11:50;;;;;;;24.37;21.60;;;8.30;31.10;;;;;;10340038;28;20222;-73
2023/03/02 22:16:53;;;;;;;27.77;22.90;;;8.30;31.10;;;;;;10364667;28;20837;-73
2023/03/02 22:21:59;;;;;;;27.53;22.60;;;8.20;31.10;;;;;;10352154;28;20242;-73
2023/03/02 22:27:18;;;;;;;26.13;20.50;;;8.20;31.60;;;;;;10353979;28;20695;-74
2023/03/02 22:32:24;;;;;;;25.57;20.87;;;8.10;31.70;;;;;;10320863;28;20247;-74
2023/03/02 22:37:30;;;;;;;25.67;21.60;;;8.10;31.40;;;;;;10307895;28;20243;-74
2023/03/02 22:42:33;;;;;;;29.23;22.93;;;8.10;31.60;;;;;;10314751;28;20577;-74
2023/03/02 22:47:37;;;;;;;26.73;23.27;;;8.10;31.40;;;;;;10325989;28;20290;-74
2023/03/02 22:52:43;;;;;;;28.33;22.73;;;8.00;31.40;;;;;;10322559;28;20238;-75
2023/03/02 22:57:46;;;;;;;26.33;22.43;;;8.00;31.60;;;;;;10358282;28;20226;-75
2023/03/02 23:02:51;;;;;;;28.97;23.10;;;7.90;31.30;;;;;;10349869;28;20225;-75
2023/03/02 23:08:12;;;;;;;25.67;21.57;;;7.90;31.40;;;;;;10357833;28;20229;-75
2023/03/02 23:13:17;;;;;;;26.93;22.60;;;7.80;31.80;;;;;;10361138;28;20629;-76
2023/03/02 23:18:23;;;;;;;25.33;20.97;;;7.80;31.50;;;;;;10361099;28;20329;-76
2023/03/02 23:23:28;;;;;;;28.23;23.10;;;7.70;31.60;;;;;;10359551;28;20241;-75
2023/03/02 23:28:31;;;;;;;29.00;23.50;;;7.70;31.70;;;;;;10359598;28;20230;-75
2023/03/02 23:33:34;;;;;;;27.47;22.27;;;7.60;31.50;;;;;;10358226;28;20226;-75
2023/03/02 23:38:39;;;;;;;19.37;17.00;;;7.50;31.40;;;;;;10359539;28;20222;-76
2023/03/02 23:43:43;;;;;;;26.57;23.03;;;7.50;31.60;;;;;;10353218;28;20226;-75
2023/03/02 23:48:46;;;;;;;28.40;22.67;;;7.50;31.60;;;;;;10343556;28;20227;-75
2023/03/02 23:53:51;;;;;;;25.53;22.63;;;7.40;31.30;;;;;;10336922;28;20240;-75
2023/03/02 23:58:55;;;;;;;25.27;21.80;;;7.40;31.60;;;;;;10348514;28;20234;-75
